sensor_id;sensor_type;location;lat;lon;timestamp;P1;durP1;ratioP1;P2;durP2;ratioP2
22646;SDS011;11490;42.726;23.268;2024-01-25T00:01:37;12.25;;;10.25;;
22646;SDS011;11490;42.726;23.268;2024-01-25T00:04:02;16.05;;;9.65;;
22646;SDS011;11490;42.726;23.268;2024-01-25T00:06:28;12.90;;;8.93;;
22646;SDS011;11490;42.726;23.268;2024-01-25T00:08:53;15.30;;;9.55;;
22646;SDS011;11490;42.726;23.268;2024-01-25T00:11:19;21.77;;;9.20;;
22646;SDS011;11490;42.726;23.268;2024-01-25T00:13:44;16.35;;;8.35;;
22646;SDS011;11490;42.726;23.268;2024-01-25T00:16:10;10.85;;;7.47;;
22646;SDS011;11490;42.726;23.268;2024-01-25T00:18:35;11.52;;;6.80;;
22646;SDS011;11490;42.726;23.268;2024-01-25T00:21:00;10.75;;;7.15;;
22646;SDS011;11490;42.726;23.268;2024-01-25T00:23:26;8.00;;;6.13;;
22646;SDS011;11490;42.726;23.268;2024-01-25T00:25:51;6.10;;;5.07;;
22646;SDS011;11490;42.726;23.268;2024-01-25T00:28:17;6.65;;;5.63;;
22646;SDS011;11490;42.726;23.268;2024-01-25T00:30:42;23.70;;;8.38;;
22646;SDS011;11490;42.726;23.268;2024-01-25T00:33:08;66.78;;;31.15;;
22646;SDS011;11490;42.726;23.268;2024-01-25T00:35:33;244.15;;;78.00;;
22646;SDS011;11490;42.726;23.268;2024-01-25T00:37:59;65.05;;;20.70;;
22646;SDS011;11490;42.726;23.268;2024-01-25T00:40:25;170.27;;;52.83;;
22646;SDS011;11490;42.726;23.268;2024-01-25T00:42:51;96.25;;;33.85;;
22646;SDS011;11490;42.726;23.268;2024-01-25T00:45:21;31.48;;;15.07;;
22646;SDS011;11490;42.726;23.268;2024-01-25T00:47:47;35.78;;;15.15;;
22646;SDS011;11490;42.726;23.268;2024-01-25T00:50:13;26.73;;;14.98;;
22646;SDS011;11490;42.726;23.268;2024-01-25T00:52:39;25.98;;;10.15;;
22646;SDS011;11490;42.726;23.268;2024-01-25T00:55:04;20.08;;;10.10;;
22646;SDS011;11490;42.726;23.268;2024-01-25T00:57:31;13.35;;;8.48;;
22646;SDS011;11490;42.726;23.268;2024-01-25T00:59:57;9.95;;;6.72;;
22646;SDS011;11490;42.726;23.268;2024-01-25T01:02:24;7.40;;;5.22;;
22646;SDS011;11490;42.726;23.268;2024-01-25T01:04:55;8.73;;;6.78;;
22646;SDS011;11490;42.726;23.268;2024-01-25T01:07:21;7.65;;;5.95;;
22646;SDS011;11490;42.726;23.268;2024-01-25T01:09:47;5.32;;;4.82;;
22646;SDS011;11490;42.726;23.268;2024-01-25T01:12:12;6.93;;;4.47;;
22646;SDS011;11490;42.726;23.268;2024-01-25T01:14:38;5.68;;;5.00;;
22646;SDS011;11490;42.726;23.268;2024-01-25T01:17:04;6.97;;;5.13;;
22646;SDS011;11490;42.726;23.268;2024-01-25T01:19:30;12.43;;;5.65;;
22646;SDS011;11490;42.726;23.268;2024-01-25T01:21:56;4.60;;;4.20;;
22646;SDS011;11490;42.726;23.268;2024-01-25T01:24:21;6.95;;;4.93;;
22646;SDS011;11490;42.726;23.268;2024-01-25T01:26:46;5.82;;;4.20;;
22646;SDS011;11490;42.726;23.268;2024-01-25T01:29:13;5.38;;;3.78;;
22646;SDS011;11490;42.726;23.268;2024-01-25T01:31:39;5.53;;;4.25;;
22646;SDS011;11490;42.726;23.268;2024-01-25T01:34:04;9.77;;;5.32;;
22646;SDS011;11490;42.726;23.268;2024-01-25T01:36:30;4.53;;;3.70;;
22646;SDS011;11490;42.726;23.268;2024-01-25T01:38:55;4.65;;;4.05;;
22646;SDS011;11490;42.726;23.268;2024-01-25T01:41:21;6.03;;;4.65;;
22646;SDS011;11490;42.726;23.268;2024-01-25T01:43:46;5.18;;;3.65;;
22646;SDS011;11490;42.726;23.268;2024-01-25T01:46:45;4.35;;;3.95;;
22646;SDS011;11490;42.726;23.268;2024-01-25T01:49:05;3.45;;;3.00;;
22646;SDS011;11490;42.726;23.268;2024-01-25T01:51:32;3.83;;;3.53;;
22646;SDS011;11490;42.726;23.268;2024-01-25T01:53:59;40.83;;;15.30;;
22646;SDS011;11490;42.726;23.268;2024-01-25T01:56:26;31.20;;;12.88;;
22646;SDS011;11490;42.726;23.268;2024-01-25T01:58:53;12.52;;;7.07;;
22646;SDS011;11490;42.726;23.268;2024-01-25T02:01:20;38.45;;;14.80;;
22646;SDS011;11490;42.726;23.268;2024-01-25T02:03:46;132.32;;;43.53;;
22646;SDS011;11490;42.726;23.268;2024-01-25T02:06:11;38.83;;;18.20;;
22646;SDS011;11490;42.726;23.268;2024-01-25T02:08:37;35.97;;;12.55;;
22646;SDS011;11490;42.726;23.268;2024-01-25T02:11:02;9.30;;;6.55;;
22646;SDS011;11490;42.726;23.268;2024-01-25T02:13:28;10.00;;;5.15;;
22646;SDS011;11490;42.726;23.268;2024-01-25T02:15:56;8.20;;;4.43;;
22646;SDS011;11490;42.726;23.268;2024-01-25T02:18:22;4.43;;;3.63;;
22646;SDS011;11490;42.726;23.268;2024-01-25T02:20:47;4.70;;;3.50;;
22646;SDS011;11490;42.726;23.268;2024-01-25T02:23:12;4.18;;;3.78;;
22646;SDS011;11490;42.726;23.268;2024-01-25T02:25:38;4.40;;;4.00;;
22646;SDS011;11490;42.726;23.268;2024-01-25T02:28:03;3.92;;;3.53;;
22646;SDS011;11490;42.726;23.268;2024-01-25T02:30:29;3.58;;;3.28;;
22646;SDS011;11490;42.726;23.268;2024-01-25T02:32:54;4.90;;;4.28;;
22646;SDS011;11490;42.726;23.268;2024-01-25T02:35:20;5.40;;;3.70;;
22646;SDS011;11490;42.726;23.268;2024-01-25T02:37:46;7.30;;;4.03;;
22646;SDS011;11490;42.726;23.268;2024-01-25T02:40:11;4.03;;;3.33;;
22646;SDS011;11490;42.726;23.268;2024-01-25T02:42:37;3.90;;;3.53;;
22646;SDS011;11490;42.726;23.268;2024-01-25T02:45:02;3.60;;;3.30;;
22646;SDS011;11490;42.726;23.268;2024-01-25T02:47:28;3.63;;;3.33;;
22646;SDS011;11490;42.726;23.268;2024-01-25T02:49:53;3.80;;;3.40;;
22646;SDS011;11490;42.726;23.268;2024-01-25T02:52:19;4.22;;;3.40;;
22646;SDS011;11490;42.726;23.268;2024-01-25T02:54:44;4.05;;;3.63;;
22646;SDS011;11490;42.726;23.268;2024-01-25T02:57:09;4.85;;;4.00;;
22646;SDS011;11490;42.726;23.268;2024-01-25T02:59:35;7.13;;;3.83;;
22646;SDS011;11490;42.726;23.268;2024-01-25T03:02:00;4.03;;;3.67;;
22646;SDS011;11490;42.726;23.268;2024-01-25T03:04:26;5.93;;;4.30;;
22646;SDS011;11490;42.726;23.268;2024-01-25T03:06:51;3.30;;;2.80;;
22646;SDS011;11490;42.726;23.268;2024-01-25T03:09:16;3.17;;;2.72;;
22646;SDS011;11490;42.726;23.268;2024-01-25T03:11:42;3.25;;;2.70;;
22646;SDS011;11490;42.726;23.268;2024-01-25T03:14:07;2.88;;;2.58;;
22646;SDS011;11490;42.726;23.268;2024-01-25T03:16:32;2.42;;;2.22;;
22646;SDS011;11490;42.726;23.268;2024-01-25T03:18:58;2.83;;;2.58;;
22646;SDS011;11490;42.726;23.268;2024-01-25T03:21:23;3.70;;;2.40;;
22646;SDS011;11490;42.726;23.268;2024-01-25T03:23:49;2.33;;;2.22;;
22646;SDS011;11490;42.726;23.268;2024-01-25T03:26:15;2.63;;;2.40;;
22646;SDS011;11490;42.726;23.268;2024-01-25T03:28:40;3.40;;;2.53;;
22646;SDS011;11490;42.726;23.268;2024-01-25T03:31:06;3.72;;;3.08;;
22646;SDS011;11490;42.726;23.268;2024-01-25T03:33:31;2.42;;;2.22;;
22646;SDS011;11490;42.726;23.268;2024-01-25T03:36:01;2.50;;;2.30;;
22646;SDS011;11490;42.726;23.268;2024-01-25T03:38:30;3.83;;;2.83;;
22646;SDS011;11490;42.726;23.268;2024-01-25T03:40:56;3.28;;;2.97;;
22646;SDS011;11490;42.726;23.268;2024-01-25T03:43:23;2.85;;;2.38;;
22646;SDS011;11490;42.726;23.268;2024-01-25T03:45:49;2.67;;;2.28;;
22646;SDS011;11490;42.726;23.268;2024-01-25T03:48:14;2.15;;;1.95;;
22646;SDS011;11490;42.726;23.268;2024-01-25T03:50:40;2.58;;;2.38;;
22646;SDS011;11490;42.726;23.268;2024-01-25T03:53:05;5.22;;;2.58;;
22646;SDS011;11490;42.726;23.268;2024-01-25T03:55:31;3.47;;;2.78;;
22646;SDS011;11490;42.726;23.268;2024-01-25T03:57:57;3.03;;;2.78;;
22646;SDS011;11490;42.726;23.268;2024-01-25T04:00:22;4.00;;;2.20;;
22646;SDS011;11490;42.726;23.268;2024-01-25T04:02:48;3.20;;;2.90;;
22646;SDS011;11490;42.726;23.268;2024-01-25T04:05:13;3.45;;;3.15;;
22646;SDS011;11490;42.726;23.268;2024-01-25T04:07:39;10.55;;;5.82;;
22646;SDS011;11490;42.726;23.268;2024-01-25T04:10:05;13.77;;;6.55;;
22646;SDS011;11490;42.726;23.268;2024-01-25T04:12:30;23.15;;;9.30;;
22646;SDS011;11490;42.726;23.268;2024-01-25T04:14:57;12.90;;;9.15;;
22646;SDS011;11490;42.726;23.268;2024-01-25T04:17:23;10.93;;;5.03;;
22646;SDS011;11490;42.726;23.268;2024-01-25T04:19:48;9.25;;;4.30;;
22646;SDS011;11490;42.726;23.268;2024-01-25T04:22:14;9.90;;;5.88;;
22646;SDS011;11490;42.726;23.268;2024-01-25T04:24:39;6.15;;;3.00;;
22646;SDS011;11490;42.726;23.268;2024-01-25T04:27:05;3.25;;;2.80;;
22646;SDS011;11490;42.726;23.268;2024-01-25T04:29:30;5.60;;;2.92;;
22646;SDS011;11490;42.726;23.268;2024-01-25T04:31:56;4.43;;;3.33;;
22646;SDS011;11490;42.726;23.268;2024-01-25T04:34:21;3.67;;;3.38;;
22646;SDS011;11490;42.726;23.268;2024-01-25T04:36:47;3.55;;;3.25;;
22646;SDS011;11490;42.726;23.268;2024-01-25T04:39:12;4.88;;;3.28;;
22646;SDS011;11490;42.726;23.268;2024-01-25T04:41:37;3.75;;;2.92;;
22646;SDS011;11490;42.726;23.268;2024-01-25T04:44:03;3.53;;;3.17;;
22646;SDS011;11490;42.726;23.268;2024-01-25T04:46:29;4.13;;;3.83;;
22646;SDS011;11490;42.726;23.268;2024-01-25T04:49:00;3.45;;;2.90;;
22646;SDS011;11490;42.726;23.268;2024-01-25T04:51:25;3.75;;;3.25;;
22646;SDS011;11490;42.726;23.268;2024-01-25T04:53:51;6.40;;;4.38;;
22646;SDS011;11490;42.726;23.268;2024-01-25T04:56:16;4.13;;;3.42;;
22646;SDS011;11490;42.726;23.268;2024-01-25T04:58:41;3.80;;;3.50;;
22646;SDS011;11490;42.726;23.268;2024-01-25T05:01:07;2.90;;;2.65;;
22646;SDS011;11490;42.726;23.268;2024-01-25T05:03:33;5.13;;;3.00;;
22646;SDS011;11490;42.726;23.268;2024-01-25T05:05:59;4.70;;;4.03;;
22646;SDS011;11490;42.726;23.268;2024-01-25T05:08:24;4.15;;;3.72;;
22646;SDS011;11490;42.726;23.268;2024-01-25T05:10:49;5.25;;;4.65;;
22646;SDS011;11490;42.726;23.268;2024-01-25T05:13:15;4.03;;;3.53;;
22646;SDS011;11490;42.726;23.268;2024-01-25T05:15:40;6.07;;;4.57;;
22646;SDS011;11490;42.726;23.268;2024-01-25T05:18:06;3.75;;;3.45;;
22646;SDS011;11490;42.726;23.268;2024-01-25T05:20:32;8.15;;;3.83;;
22646;SDS011;11490;42.726;23.268;2024-01-25T05:23:03;3.80;;;3.50;;
22646;SDS011;11490;42.726;23.268;2024-01-25T05:25:30;4.72;;;3.60;;
22646;SDS011;11490;42.726;23.268;2024-01-25T05:27:55;5.00;;;3.58;;
22646;SDS011;11490;42.726;23.268;2024-01-25T05:30:22;7.38;;;4.10;;
22646;SDS011;11490;42.726;23.268;2024-01-25T05:32:48;3.97;;;3.67;;
22646;SDS011;11490;42.726;23.268;2024-01-25T05:35:14;3.15;;;2.85;;
22646;SDS011;11490;42.726;23.268;2024-01-25T05:37:40;3.10;;;2.55;;
22646;SDS011;11490;42.726;23.268;2024-01-25T05:40:06;3.47;;;3.17;;
22646;SDS011;11490;42.726;23.268;2024-01-25T05:42:32;2.33;;;2.15;;
22646;SDS011;11490;42.726;23.268;2024-01-25T05:44:58;2.80;;;2.53;;
22646;SDS011;11490;42.726;23.268;2024-01-25T05:47:23;3.22;;;3.00;;
22646;SDS011;11490;42.726;23.268;2024-01-25T05:49:49;2.65;;;2.45;;
22646;SDS011;11490;42.726;23.268;2024-01-25T05:52:14;3.40;;;3.03;;
22646;SDS011;11490;42.726;23.268;2024-01-25T05:54:40;3.10;;;2.78;;
22646;SDS011;11490;42.726;23.268;2024-01-25T05:57:05;4.03;;;3.67;;
22646;SDS011;11490;42.726;23.268;2024-01-25T05:59:30;3.65;;;3.08;;
22646;SDS011;11490;42.726;23.268;2024-01-25T06:01:56;2.90;;;2.70;;
22646;SDS011;11490;42.726;23.268;2024-01-25T06:04:21;3.88;;;2.92;;
22646;SDS011;11490;42.726;23.268;2024-01-25T06:06:47;8.13;;;4.38;;
22646;SDS011;11490;42.726;23.268;2024-01-25T06:09:12;4.25;;;3.53;;
22646;SDS011;11490;42.726;23.268;2024-01-25T06:11:39;4.63;;;3.30;;
22646;SDS011;11490;42.726;23.268;2024-01-25T06:14:05;4.05;;;3.72;;
22646;SDS011;11490;42.726;23.268;2024-01-25T06:16:31;3.25;;;2.95;;
22646;SDS011;11490;42.726;23.268;2024-01-25T06:18:56;3.00;;;2.70;;
22646;SDS011;11490;42.726;23.268;2024-01-25T06:21:23;3.70;;;2.72;;
22646;SDS011;11490;42.726;23.268;2024-01-25T06:23:49;4.85;;;3.42;;
22646;SDS011;11490;42.726;23.268;2024-01-25T06:26:14;6.65;;;3.30;;
22646;SDS011;11490;42.726;23.268;2024-01-25T06:28:39;2.90;;;2.63;;
22646;SDS011;11490;42.726;23.268;2024-01-25T06:31:06;3.72;;;3.05;;
22646;SDS011;11490;42.726;23.268;2024-01-25T06:33:31;4.40;;;3.90;;
22646;SDS011;11490;42.726;23.268;2024-01-25T06:35:57;3.95;;;3.58;;
22646;SDS011;11490;42.726;23.268;2024-01-25T06:38:22;6.07;;;3.30;;
22646;SDS011;11490;42.726;23.268;2024-01-25T06:40:48;5.53;;;4.53;;
22646;SDS011;11490;42.726;23.268;2024-01-25T06:43:13;4.95;;;3.75;;
22646;SDS011;11490;42.726;23.268;2024-01-25T06:45:38;3.05;;;2.85;;
22646;SDS011;11490;42.726;23.268;2024-01-25T06:48:07;3.08;;;2.88;;
22646;SDS011;11490;42.726;23.268;2024-01-25T06:50:35;7.40;;;3.45;;
22646;SDS011;11490;42.726;23.268;2024-01-25T06:53:00;4.47;;;3.17;;
22646;SDS011;11490;42.726;23.268;2024-01-25T06:55:26;5.65;;;4.13;;
22646;SDS011;11490;42.726;23.268;2024-01-25T06:57:51;7.22;;;3.75;;
22646;SDS011;11490;42.726;23.268;2024-01-25T07:00:17;9.85;;;6.68;;
22646;SDS011;11490;42.726;23.268;2024-01-25T07:02:43;5.32;;;4.00;;
22646;SDS011;11490;42.726;23.268;2024-01-25T07:05:09;8.18;;;4.60;;
22646;SDS011;11490;42.726;23.268;2024-01-25T07:07:35;12.00;;;7.38;;
22646;SDS011;11490;42.726;23.268;2024-01-25T07:10:00;4.35;;;3.80;;
22646;SDS011;11490;42.726;23.268;2024-01-25T07:12:26;6.35;;;3.67;;
22646;SDS011;11490;42.726;23.268;2024-01-25T07:14:52;4.15;;;3.78;;
22646;SDS011;11490;42.726;23.268;2024-01-25T07:17:17;4.45;;;2.85;;
22646;SDS011;11490;42.726;23.268;2024-01-25T07:19:43;9.95;;;5.57;;
22646;SDS011;11490;42.726;23.268;2024-01-25T07:22:08;7.95;;;6.70;;
22646;SDS011;11490;42.726;23.268;2024-01-25T07:24:33;12.88;;;6.22;;
22646;SDS011;11490;42.726;23.268;2024-01-25T07:26:59;9.80;;;5.35;;
22646;SDS011;11490;42.726;23.268;2024-01-25T07:29:25;4.22;;;3.88;;
22646;SDS011;11490;42.726;23.268;2024-01-25T07:31:50;7.40;;;5.78;;
22646;SDS011;11490;42.726;23.268;2024-01-25T07:34:15;14.00;;;4.80;;
22646;SDS011;11490;42.726;23.268;2024-01-25T07:36:41;14.18;;;4.45;;
22646;SDS011;11490;42.726;23.268;2024-01-25T07:39:06;7.32;;;3.55;;
22646;SDS011;11490;42.726;23.268;2024-01-25T07:41:33;6.53;;;3.45;;
22646;SDS011;11490;42.726;23.268;2024-01-25T07:43:58;3.92;;;3.30;;
22646;SDS011;11490;42.726;23.268;2024-01-25T07:46:24;4.00;;;3.38;;
22646;SDS011;11490;42.726;23.268;2024-01-25T07:48:49;3.38;;;2.97;;
22646;SDS011;11490;42.726;23.268;2024-01-25T07:51:15;3.17;;;2.53;;
22646;SDS011;11490;42.726;23.268;2024-01-25T07:53:40;9.93;;;4.22;;
22646;SDS011;11490;42.726;23.268;2024-01-25T07:56:06;2.83;;;2.63;;
22646;SDS011;11490;42.726;23.268;2024-01-25T07:58:33;3.65;;;3.25;;
22646;SDS011;11490;42.726;23.268;2024-01-25T08:01:02;3.85;;;3.38;;
22646;SDS011;11490;42.726;23.268;2024-01-25T08:03:31;3.30;;;2.53;;
22646;SDS011;11490;42.726;23.268;2024-01-25T08:05:57;6.38;;;3.88;;
22646;SDS011;11490;42.726;23.268;2024-01-25T08:08:23;4.38;;;2.85;;
22646;SDS011;11490;42.726;23.268;2024-01-25T08:10:48;5.60;;;3.67;;
22646;SDS011;11490;42.726;23.268;2024-01-25T08:13:20;11.57;;;6.03;;
22646;SDS011;11490;42.726;23.268;2024-01-25T08:15:49;4.07;;;2.83;;
22646;SDS011;11490;42.726;23.268;2024-01-25T08:18:15;3.80;;;3.13;;
22646;SDS011;11490;42.726;23.268;2024-01-25T08:20:40;7.03;;;2.95;;
22646;SDS011;11490;42.726;23.268;2024-01-25T08:23:06;3.80;;;2.78;;
22646;SDS011;11490;42.726;23.268;2024-01-25T08:25:34;4.60;;;3.00;;
22646;SDS011;11490;42.726;23.268;2024-01-25T08:27:59;4.47;;;3.10;;
22646;SDS011;11490;42.726;23.268;2024-01-25T08:30:25;5.47;;;2.75;;
22646;SDS011;11490;42.726;23.268;2024-01-25T08:32:50;4.60;;;3.55;;
22646;SDS011;11490;42.726;23.268;2024-01-25T08:35:16;3.88;;;3.40;;
22646;SDS011;11490;42.726;23.268;2024-01-25T08:37:42;4.45;;;2.70;;
22646;SDS011;11490;42.726;23.268;2024-01-25T08:40:08;2.42;;;2.22;;
22646;SDS011;11490;42.726;23.268;2024-01-25T08:42:34;5.90;;;3.53;;
22646;SDS011;11490;42.726;23.268;2024-01-25T08:45:00;7.50;;;2.85;;
22646;SDS011;11490;42.726;23.268;2024-01-25T08:47:25;6.38;;;3.15;;
22646;SDS011;11490;42.726;23.268;2024-01-25T08:49:51;6.35;;;4.35;;
22646;SDS011;11490;42.726;23.268;2024-01-25T08:52:16;4.88;;;3.58;;
22646;SDS011;11490;42.726;23.268;2024-01-25T08:54:42;9.55;;;4.65;;
22646;SDS011;11490;42.726;23.268;2024-01-25T08:57:08;3.22;;;2.63;;
22646;SDS011;11490;42.726;23.268;2024-01-25T08:59:34;7.38;;;3.67;;
22646;SDS011;11490;42.726;23.268;2024-01-25T09:02:02;4.05;;;3.28;;
22646;SDS011;11490;42.726;23.268;2024-01-25T09:04:31;5.07;;;2.80;;
22646;SDS011;11490;42.726;23.268;2024-01-25T09:06:57;4.28;;;3.47;;
22646;SDS011;11490;42.726;23.268;2024-01-25T09:09:23;4.72;;;3.15;;
22646;SDS011;11490;42.726;23.268;2024-01-25T09:11:48;7.03;;;4.55;;
22646;SDS011;11490;42.726;23.268;2024-01-25T09:14:13;8.95;;;5.30;;
22646;SDS011;11490;42.726;23.268;2024-01-25T09:16:39;5.45;;;4.20;;
22646;SDS011;11490;42.726;23.268;2024-01-25T09:19:04;10.55;;;5.47;;
22646;SDS011;11490;42.726;23.268;2024-01-25T09:21:30;10.50;;;4.65;;
22646;SDS011;11490;42.726;23.268;2024-01-25T09:23:55;5.93;;;3.72;;
22646;SDS011;11490;42.726;23.268;2024-01-25T09:26:21;7.28;;;4.18;;
22646;SDS011;11490;42.726;23.268;2024-01-25T09:28:46;6.85;;;4.47;;
22646;SDS011;11490;42.726;23.268;2024-01-25T09:31:12;6.88;;;3.72;;
22646;SDS011;11490;42.726;23.268;2024-01-25T09:33:37;5.32;;;3.85;;
22646;SDS011;11490;42.726;23.268;2024-01-25T09:36:03;4.15;;;2.90;;
22646;SDS011;11490;42.726;23.268;2024-01-25T09:38:28;2.85;;;2.55;;
22646;SDS011;11490;42.726;23.268;2024-01-25T09:40:54;12.52;;;4.45;;
22646;SDS011;11490;42.726;23.268;2024-01-25T09:43:19;6.20;;;3.45;;
22646;SDS011;11490;42.726;23.268;2024-01-25T09:45:45;7.28;;;3.85;;
22646;SDS011;11490;42.726;23.268;2024-01-25T09:48:13;8.63;;;4.05;;
22646;SDS011;11490;42.726;23.268;2024-01-25T09:50:38;7.07;;;5.30;;
22646;SDS011;11490;42.726;23.268;2024-01-25T09:53:04;6.07;;;4.28;;
22646;SDS011;11490;42.726;23.268;2024-01-25T09:55:32;5.35;;;3.65;;
22646;SDS011;11490;42.726;23.268;2024-01-25T09:58:03;10.35;;;4.63;;
22646;SDS011;11490;42.726;23.268;2024-01-25T10:00:32;9.88;;;5.05;;
22646;SDS011;11490;42.726;23.268;2024-01-25T10:02:58;10.52;;;3.92;;
22646;SDS011;11490;42.726;23.268;2024-01-25T10:05:23;4.47;;;3.65;;
22646;SDS011;11490;42.726;23.268;2024-01-25T10:07:49;18.63;;;6.72;;
22646;SDS011;11490;42.726;23.268;2024-01-25T10:10:14;16.80;;;7.45;;
22646;SDS011;11490;42.726;23.268;2024-01-25T10:12:41;9.80;;;6.65;;
22646;SDS011;11490;42.726;23.268;2024-01-25T10:15:08;45.63;;;14.95;;
22646;SDS011;11490;42.726;23.268;2024-01-25T10:17:34;22.70;;;10.35;;
22646;SDS011;11490;42.726;23.268;2024-01-25T10:20:00;27.15;;;12.00;;
22646;SDS011;11490;42.726;23.268;2024-01-25T10:22:25;27.15;;;12.48;;
22646;SDS011;11490;42.726;23.268;2024-01-25T10:24:52;11.48;;;7.30;;
22646;SDS011;11490;42.726;23.268;2024-01-25T10:27:19;7.90;;;5.97;;
22646;SDS011;11490;42.726;23.268;2024-01-25T10:29:45;7.72;;;5.00;;
22646;SDS011;11490;42.726;23.268;2024-01-25T10:32:10;4.47;;;3.17;;
22646;SDS011;11490;42.726;23.268;2024-01-25T10:34:37;5.20;;;3.25;;
22646;SDS011;11490;42.726;23.268;2024-01-25T10:37:06;4.55;;;3.35;;
22646;SDS011;11490;42.726;23.268;2024-01-25T10:39:32;3.65;;;2.97;;
22646;SDS011;11490;42.726;23.268;2024-01-25T10:41:59;3.60;;;3.15;;
22646;SDS011;11490;42.726;23.268;2024-01-25T10:44:25;5.78;;;3.75;;
22646;SDS011;11490;42.726;23.268;2024-01-25T10:46:51;7.20;;;3.30;;
22646;SDS011;11490;42.726;23.268;2024-01-25T10:49:17;7.80;;;3.22;;
22646;SDS011;11490;42.726;23.268;2024-01-25T10:51:43;5.20;;;3.58;;
22646;SDS011;11490;42.726;23.268;2024-01-25T10:54:13;7.97;;;3.70;;
22646;SDS011;11490;42.726;23.268;2024-01-25T10:56:43;7.80;;;4.10;;
22646;SDS011;11490;42.726;23.268;2024-01-25T10:59:11;11.85;;;3.92;;
22646;SDS011;11490;42.726;23.268;2024-01-25T11:01:36;5.57;;;4.68;;
22646;SDS011;11490;42.726;23.268;2024-01-25T11:04:02;7.97;;;4.28;;
22646;SDS011;11490;42.726;23.268;2024-01-25T11:06:28;3.75;;;3.13;;
22646;SDS011;11490;42.726;23.268;2024-01-25T11:09:06;6.43;;;2.58;;
22646;SDS011;11490;42.726;23.268;2024-01-25T11:11:35;5.20;;;3.03;;
22646;SDS011;11490;42.726;23.268;2024-01-25T11:14:01;5.32;;;3.38;;
22646;SDS011;11490;42.726;23.268;2024-01-25T11:16:30;8.25;;;3.60;;
22646;SDS011;11490;42.726;23.268;2024-01-25T11:18:57;3.30;;;3.00;;
22646;SDS011;11490;42.726;23.268;2024-01-25T11:21:39;13.02;;;3.85;;
22646;SDS011;11490;42.726;23.268;2024-01-25T11:24:25;4.47;;;3.10;;
22646;SDS011;11490;42.726;23.268;2024-01-25T11:26:54;4.50;;;2.75;;
22646;SDS011;11490;42.726;23.268;2024-01-25T11:29:20;5.85;;;2.97;;
22646;SDS011;11490;42.726;23.268;2024-01-25T11:31:47;4.70;;;2.40;;
22646;SDS011;11490;42.726;23.268;2024-01-25T11:34:14;3.28;;;2.47;;
22646;SDS011;11490;42.726;23.268;2024-01-25T11:36:46;5.22;;;2.72;;
22646;SDS011;11490;42.726;23.268;2024-01-25T11:39:13;3.05;;;2.70;;
22646;SDS011;11490;42.726;23.268;2024-01-25T11:41:40;3.03;;;2.70;;
22646;SDS011;11490;42.726;23.268;2024-01-25T11:44:09;4.70;;;3.28;;
22646;SDS011;11490;42.726;23.268;2024-01-25T11:46:35;5.07;;;3.28;;
22646;SDS011;11490;42.726;23.268;2024-01-25T11:49:00;7.88;;;2.95;;
22646;SDS011;11490;42.726;23.268;2024-01-25T11:51:26;3.88;;;2.60;;
22646;SDS011;11490;42.726;23.268;2024-01-25T11:53:51;3.78;;;2.65;;
22646;SDS011;11490;42.726;23.268;2024-01-25T11:56:21;3.83;;;2.83;;
22646;SDS011;11490;42.726;23.268;2024-01-25T11:58:54;9.98;;;3.83;;
22646;SDS011;11490;42.726;23.268;2024-01-25T12:01:22;5.25;;;3.72;;
22646;SDS011;11490;42.726;23.268;2024-01-25T12:03:49;4.32;;;2.67;;
22646;SDS011;11490;42.726;23.268;2024-01-25T12:06:14;4.60;;;3.20;;
22646;SDS011;11490;42.726;23.268;2024-01-25T12:08:40;4.68;;;3.03;;
22646;SDS011;11490;42.726;23.268;2024-01-25T12:11:09;6.43;;;3.65;;
22646;SDS011;11490;42.726;23.268;2024-01-25T12:13:35;6.72;;;3.40;;
22646;SDS011;11490;42.726;23.268;2024-01-25T12:16:04;9.57;;;4.88;;
22646;SDS011;11490;42.726;23.268;2024-01-25T12:18:31;18.90;;;4.28;;
22646;SDS011;11490;42.726;23.268;2024-01-25T12:21:03;6.97;;;5.03;;
22646;SDS011;11490;42.726;23.268;2024-01-25T12:23:36;4.43;;;3.45;;
22646;SDS011;11490;42.726;23.268;2024-01-25T12:26:06;7.50;;;3.55;;
22646;SDS011;11490;42.726;23.268;2024-01-25T12:28:33;8.32;;;3.33;;
22646;SDS011;11490;42.726;23.268;2024-01-25T12:31:05;9.77;;;3.95;;
22646;SDS011;11490;42.726;23.268;2024-01-25T12:33:32;7.63;;;4.35;;
22646;SDS011;11490;42.726;23.268;2024-01-25T12:35:59;9.82;;;4.38;;
22646;SDS011;11490;42.726;23.268;2024-01-25T12:38:25;3.15;;;2.72;;
22646;SDS011;11490;42.726;23.268;2024-01-25T12:40:51;10.40;;;3.10;;
22646;SDS011;11490;42.726;23.268;2024-01-25T12:43:17;5.30;;;3.70;;
22646;SDS011;11490;42.726;23.268;2024-01-25T12:45:43;12.63;;;3.47;;
22646;SDS011;11490;42.726;23.268;2024-01-25T12:48:09;10.05;;;4.47;;
22646;SDS011;11490;42.726;23.268;2024-01-25T12:50:35;6.22;;;3.83;;
22646;SDS011;11490;42.726;23.268;2024-01-25T12:53:01;6.70;;;4.57;;
22646;SDS011;11490;42.726;23.268;2024-01-25T12:55:30;5.35;;;4.85;;
22646;SDS011;11490;42.726;23.268;2024-01-25T12:57:56;4.80;;;3.70;;
22646;SDS011;11490;42.726;23.268;2024-01-25T13:00:23;4.55;;;3.33;;
22646;SDS011;11490;42.726;23.268;2024-01-25T13:02:48;3.97;;;3.58;;
22646;SDS011;11490;42.726;23.268;2024-01-25T13:05:14;7.50;;;4.35;;
22646;SDS011;11490;42.726;23.268;2024-01-25T13:07:40;5.95;;;3.97;;
22646;SDS011;11490;42.726;23.268;2024-01-25T13:10:06;5.55;;;3.17;;
22646;SDS011;11490;42.726;23.268;2024-01-25T13:12:31;5.97;;;3.55;;
22646;SDS011;11490;42.726;23.268;2024-01-25T13:14:57;9.45;;;4.60;;
22646;SDS011;11490;42.726;23.268;2024-01-25T13:17:22;4.65;;;3.47;;
22646;SDS011;11490;42.726;23.268;2024-01-25T13:19:49;7.28;;;4.22;;
22646;SDS011;11490;42.726;23.268;2024-01-25T13:22:14;4.47;;;3.22;;
22646;SDS011;11490;42.726;23.268;2024-01-25T13:24:42;6.40;;;2.92;;
22646;SDS011;11490;42.726;23.268;2024-01-25T13:27:07;9.45;;;3.28;;
22646;SDS011;11490;42.726;23.268;2024-01-25T13:29:33;4.22;;;3.53;;
22646;SDS011;11490;42.726;23.268;2024-01-25T13:31:58;5.65;;;2.67;;
22646;SDS011;11490;42.726;23.268;2024-01-25T13:34:24;3.60;;;3.08;;
22646;SDS011;11490;42.726;23.268;2024-01-25T13:36:49;3.95;;;3.25;;
22646;SDS011;11490;42.726;23.268;2024-01-25T13:39:17;6.13;;;2.88;;
22646;SDS011;11490;42.726;23.268;2024-01-25T13:41:42;4.72;;;4.15;;
22646;SDS011;11490;42.726;23.268;2024-01-25T13:44:08;4.00;;;3.50;;
22646;SDS011;11490;42.726;23.268;2024-01-25T13:46:33;6.85;;;3.17;;
22646;SDS011;11490;42.726;23.268;2024-01-25T13:48:58;4.07;;;3.67;;
22646;SDS011;11490;42.726;23.268;2024-01-25T13:51:24;6.68;;;3.75;;
22646;SDS011;11490;42.726;23.268;2024-01-25T13:53:49;11.38;;;8.15;;
22646;SDS011;11490;42.726;23.268;2024-01-25T13:56:15;11.63;;;8.35;;
22646;SDS011;11490;42.726;23.268;2024-01-25T13:58:41;10.45;;;5.70;;
22646;SDS011;11490;42.726;23.268;2024-01-25T14:01:07;7.97;;;4.20;;
22646;SDS011;11490;42.726;23.268;2024-01-25T14:03:32;5.80;;;3.97;;
22646;SDS011;11490;42.726;23.268;2024-01-25T14:05:57;4.35;;;3.33;;
22646;SDS011;11490;42.726;23.268;2024-01-25T14:08:25;7.15;;;4.18;;
22646;SDS011;11490;42.726;23.268;2024-01-25T14:10:50;6.70;;;4.32;;
22646;SDS011;11490;42.726;23.268;2024-01-25T14:13:16;9.02;;;5.88;;
22646;SDS011;11490;42.726;23.268;2024-01-25T14:15:41;12.43;;;4.70;;
22646;SDS011;11490;42.726;23.268;2024-01-25T14:18:07;8.38;;;4.10;;
22646;SDS011;11490;42.726;23.268;2024-01-25T14:20:32;10.20;;;3.58;;
22646;SDS011;11490;42.726;23.268;2024-01-25T14:22:58;12.13;;;4.25;;
22646;SDS011;11490;42.726;23.268;2024-01-25T14:25:23;9.13;;;3.63;;